Time;durP1;ratioP1;P1;durP2;ratioP2;P2;SDS_P1;SDS_P2;PMS_P1;PMS_P2;Temp;Humidity;BMP_temperature;BMP_pressure;BME280_temperature;BME280_humidity;BME280_pressure;Samples;Min_cycle;Max_cycle;Signal;HPM_P1;HPM_P2
2022/12/18 00:00:11;;;;;;;5.95;2.28;;;20.70;60.80;;;;;;4017631;29;20055;-50
2022/12/18 00:02:33;;;;;;;4.57;1.23;;;20.70;60.70;;;;;;4024435;29;20042;-49
2022/12/18 00:04:56;;;;;;;2.72;1.05;;;20.70;60.60;;;;;;4023367;29;20052;-47
2022/12/18 00:07:18;;;;;;;4.05;1.40;;;20.80;61.30;;;;;;4030855;29;20401;-50
2022/12/18 00:09:41;;;;;;;1.77;0.90;;;20.80;61.00;;;;;;4031579;29;20497;-45
2022/12/18 00:12:04;;;;;;;5.03;1.50;;;20.80;60.80;;;;;;4036728;29;20124;-48
2022/12/18 00:14:26;;;;;;;6.05;1.88;;;20.80;61.00;;;;;;4034662;29;20147;-52
2022/12/18 00:16:49;;;;;;;4.65;1.52;;;20.80;62.50;;;;;;4038542;29;20044;-48
2022/12/18 00:19:12;;;;;;;16.50;1.42;;;20.90;62.50;;;;;;4038574;29;20123;-52
2022/12/18 00:21:35;;;;;;;2.30;1.00;;;20.90;62.20;;;;;;4030938;29;20253;-59
2022/12/18 00:23:59;;;;;;;3.78;0.93;;;20.90;61.80;;;;;;4031390;29;20469;-60
2022/12/18 00:26:25;;;;;;;1.80;0.70;;;20.90;61.40;;;;;;4025262;29;20040;-59
2022/12/18 00:28:47;;;;;;;3.55;1.13;;;20.90;61.10;;;;;;4042890;29;20453;-57
2022/12/18 00:31:15;;;;;;;2.50;0.80;;;20.90;61.10;;;;;;4030926;29;20033;-59
2022/12/18 00:33:39;;;;;;;2.92;0.63;;;20.80;60.90;;;;;;4018539;29;20076;-59
2022/12/18 00:36:06;;;;;;;0.77;0.47;;;20.80;61.70;;;;;;4017061;29;20401;-59
2022/12/18 00:38:29;;;;;;;1.33;0.70;;;20.80;60.90;;;;;;4039261;29;20321;-59
2022/12/18 00:40:51;;;;;;;2.67;0.73;;;20.80;61.10;;;;;;4020893;29;20116;-59
2022/12/18 00:43:14;;;;;;;1.73;0.80;;;20.80;61.10;;;;;;4026053;29;20120;-59
2022/12/18 00:45:36;;;;;;;1.50;1.20;;;20.80;61.10;;;;;;4025100;29;20056;-59
2022/12/18 00:47:59;;;;;;;0.88;0.50;;;20.80;60.90;;;;;;4030036;29;20041;-60
2022/12/18 00:50:24;;;;;;;1.00;0.80;;;20.80;60.70;;;;;;4036682;29;20140;-60
2022/12/18 00:52:47;;;;;;;2.55;0.73;;;20.80;60.60;;;;;;4035792;29;20044;-59
2022/12/18 00:55:10;;;;;;;2.28;0.55;;;20.80;60.50;;;;;;4037895;29;20064;-59
2022/12/18 00:57:32;;;;;;;1.77;0.70;;;20.70;60.40;;;;;;4038645;29;20048;-59
2022/12/18 00:59:55;;;;;;;0.90;0.60;;;20.70;60.40;;;;;;4030502;29;20120;-59
2022/12/18 01:02:17;;;;;;;1.20;0.57;;;20.70;60.50;;;;;;4032554;29;20478;-59
2022/12/18 01:04:40;;;;;;;1.45;0.47;;;20.70;61.00;;;;;;4031021;29;20055;-59
2022/12/18 01:07:03;;;;;;;1.42;0.50;;;20.70;61.10;;;;;;4029606;29;20493;-59
2022/12/18 01:09:25;;;;;;;0.88;0.55;;;20.70;61.30;;;;;;4033768;29;20692;-59
2022/12/18 01:11:48;;;;;;;1.55;0.52;;;20.70;61.40;;;;;;4025117;29;20041;-59
2022/12/18 01:14:11;;;;;;;1.63;0.88;;;20.70;61.50;;;;;;4036663;29;20051;-59
2022/12/18 01:16:33;;;;;;;3.03;0.80;;;20.70;61.60;;;;;;4039477;29;20053;-59
2022/12/18 01:18:56;;;;;;;2.47;0.70;;;20.70;61.60;;;;;;4037228;29;20120;-59
2022/12/18 01:21:19;;;;;;;3.10;1.00;;;20.70;61.50;;;;;;4039135;29;20140;-58
2022/12/18 01:23:41;;;;;;;2.33;0.80;;;20.70;61.50;;;;;;4030714;29;20159;-60
2022/12/18 01:26:09;;;;;;;3.22;0.68;;;20.70;61.40;;;;;;4029906;29;20115;-58
2022/12/18 01:28:31;;;;;;;2.80;0.82;;;20.80;61.30;;;;;;4028822;29;20101;-59
2022/12/18 01:30:54;;;;;;;2.63;1.02;;;20.80;61.20;;;;;;4033599;29;20381;-58
2022/12/18 01:33:16;;;;;;;2.92;0.90;;;20.80;61.10;;;;;;4029061;29;20536;-55
2022/12/18 01:35:45;;;;;;;3.53;0.85;;;20.80;60.90;;;;;;4028100;29;20045;-58
2022/12/18 01:38:08;;;;;;;3.22;1.25;;;20.80;61.00;;;;;;4028879;29;20037;-59
2022/12/18 01:40:30;;;;;;;3.92;1.02;;;20.80;61.00;;;;;;4030783;29;20045;-58
2022/12/18 01:42:53;;;;;;;7.75;2.20;;;20.80;61.00;;;;;;4036984;29;20425;-59
2022/12/18 01:45:16;;;;;;;2.20;1.13;;;20.80;60.90;;;;;;4038742;29;20072;-58
2022/12/18 01:48:08;;;;;;;6.10;1.52;;;20.80;60.90;;;;;;4039158;29;20595;-57
2022/12/18 01:50:38;;;;;;;5.30;2.25;;;20.80;60.80;;;;;;4030448;29;20036;-58
2022/12/18 01:53:21;;;;;;;3.50;1.65;;;20.80;60.70;;;;;;4037337;29;20049;-58
2022/12/18 01:55:56;;;;;;;6.32;1.70;;;20.80;60.50;;;;;;4039346;29;20040;-58
2022/12/18 01:58:21;;;;;;;4.05;0.95;;;20.80;60.20;;;;;;4040136;29;20048;-59
2022/12/18 02:00:44;;;;;;;11.32;1.50;;;20.80;60.20;;;;;;4035884;29;20056;-59
2022/12/18 02:03:07;;;;;;;5.40;1.48;;;20.80;60.30;;;;;;4036116;29;20102;-58
2022/12/18 02:05:37;;;;;;;5.30;1.40;;;20.80;60.20;;;;;;4037763;29;20055;-58
2022/12/18 02:08:06;;;;;;;6.13;1.55;;;20.90;60.20;;;;;;4035423;29;20116;-59
2022/12/18 02:11:03;;;;;;;4.30;1.60;;;20.90;60.40;;;;;;4032316;29;20429;-58
2022/12/18 02:13:58;;;;;;;4.43;1.65;;;20.80;60.30;;;;;;4035585;29;20051;-57
2022/12/18 02:16:24;;;;;;;5.28;1.50;;;20.80;60.10;;;;;;4032685;29;20052;-59
2022/12/18 02:18:54;;;;;;;3.53;1.27;;;20.80;59.90;;;;;;4039073;29;20075;-58
2022/12/18 02:21:25;;;;;;;5.00;1.40;;;20.80;59.80;;;;;;4034580;29;20037;-56
2022/12/18 02:24:13;;;;;;;3.85;1.00;;;20.80;59.50;;;;;;4040296;29;20052;-58
2022/12/18 02:26:44;;;;;;;5.53;1.60;;;20.80;59.40;;;;;;4037216;29;20053;-57
2022/12/18 02:29:27;;;;;;;4.90;1.52;;;20.80;59.40;;;;;;4037759;29;20036;-59
2022/12/18 02:32:00;;;;;;;3.75;1.20;;;20.80;59.70;;;;;;4040020;29;20181;-59
2022/12/18 02:34:27;;;;;;;3.92;1.88;;;20.90;59.60;;;;;;4041465;29;20044;-58
2022/12/18 02:36:51;;;;;;;4.50;1.60;;;20.90;59.40;;;;;;4042915;29;20066;-57
2022/12/18 02:39:16;;;;;;;4.00;1.75;;;21.00;59.50;;;;;;4035632;29;20032;-58
2022/12/18 02:41:40;;;;;;;4.18;1.27;;;21.00;59.40;;;;;;4042057;29;20080;-59
2022/12/18 02:44:11;;;;;;;2.92;1.45;;;21.00;59.30;;;;;;4034671;29;20040;-58
2022/12/18 02:46:38;;;;;;;4.43;1.58;;;21.10;59.20;;;;;;4029868;29;20040;-59
2022/12/18 02:49:07;;;;;;;4.13;1.02;;;21.10;59.20;;;;;;4029499;29;20503;-60
2022/12/18 02:51:51;;;;;;;5.65;1.45;;;21.10;58.80;;;;;;4029731;29;20184;-59
2022/12/18 02:54:36;;;;;;;5.47;1.40;;;21.10;58.70;;;;;;4033547;29;20079;-59
2022/12/18 02:57:15;;;;;;;3.28;1.20;;;21.10;58.30;;;;;;4030527;29;20052;-59
2022/12/18 02:59:53;;;;;;;2.75;0.98;;;21.10;57.90;;;;;;4028508;29;20051;-59
2022/12/18 03:02:53;;;;;;;4.57;1.55;;;21.10;57.60;;;;;;4033327;29;20157;-59
2022/12/18 03:05:28;;;;;;;4.18;1.50;;;21.10;57.30;;;;;;4025897;29;20656;-59
2022/12/18 03:07:55;;;;;;;4.38;1.52;;;21.10;57.00;;;;;;4034480;29;20044;-59
2022/12/18 03:10:24;;;;;;;4.40;1.48;;;21.20;57.10;;;;;;4034191;29;20043;-59
2022/12/18 03:13:04;;;;;;;2.67;1.23;;;21.20;56.90;;;;;;4031161;29;20040;-55
2022/12/18 03:15:35;;;;;;;3.10;1.20;;;21.20;56.00;;;;;;4024709;29;20041;-60
2022/12/18 03:18:07;;;;;;;3.33;1.20;;;21.20;56.00;;;;;;4025522;29;20588;-57
2022/12/18 03:20:33;;;;;;;2.28;1.00;;;21.20;55.70;;;;;;4027949;29;20051;-58
2022/12/18 03:23:11;;;;;;;2.78;0.95;;;21.20;55.90;;;;;;4032065;29;20505;-56
2022/12/18 03:25:36;;;;;;;3.33;0.93;;;21.20;55.40;;;;;;4033698;29;20112;-58
2022/12/18 03:28:02;;;;;;;3.08;1.10;;;21.20;55.30;;;;;;4033070;29;20489;-59
2022/12/18 03:30:26;;;;;;;3.92;1.23;;;21.30;55.30;;;;;;4033292;29;20061;-59
2022/12/18 03:33:02;;;;;;;3.40;1.20;;;21.30;55.30;;;;;;4031361;29;20709;-59
2022/12/18 03:35:29;;;;;;;3.92;1.00;;;21.30;55.50;;;;;;4025356;29;20116;-59
2022/12/18 03:37:52;;;;;;;3.10;0.82;;;21.40;55.00;;;;;;4042629;29;20048;-58
2022/12/18 03:40:15;;;;;;;3.50;1.02;;;21.40;55.50;;;;;;4040088;29;20032;-59
2022/12/18 03:42:50;;;;;;;1.95;0.60;;;21.40;55.40;;;;;;4040309;29;20316;-59
2022/12/18 03:45:48;;;;;;;4.15;1.00;;;21.40;55.10;;;;;;4041781;29;20084;-59
2022/12/18 03:48:17;;;;;;;3.10;1.30;;;21.40;55.20;;;;;;4036418;29;20380;-56
2022/12/18 03:50:59;;;;;;;3.35;1.27;;;21.40;55.10;;;;;;4059671;29;20050;-58
2022/12/18 03:53:44;;;;;;;3.67;0.82;;;21.40;54.90;;;;;;4035147;29;20089;-58
2022/12/18 03:56:06;;;;;;;;;;;21.50;55.10;;;;;;4037093;29;20048;-56
2022/12/18 03:58:32;;;;;;;3.40;1.08;;;21.40;55.00;;;;;;4037168;29;19946;-60
2022/12/18 04:00:59;;;;;;;3.45;1.45;;;21.40;55.00;;;;;;4038229;29;20513;-59
2022/12/18 04:03:23;;;;;;;3.80;1.17;;;21.50;55.00;;;;;;4057102;29;20032;-59
2022/12/18 04:05:48;;;;;;;2.50;0.85;;;21.50;54.80;;;;;;4039252;29;20617;-59
2022/12/18 04:08:11;;;;;;;2.42;1.50;;;21.50;55.10;;;;;;4038579;29;20044;-59
2022/12/18 04:10:33;;;;;;;1.70;0.68;;;21.50;54.90;;;;;;4026010;29;20060;-59
2022/12/18 04:12:59;;;;;;;1.77;0.88;;;21.50;54.70;;;;;;4036956;29;20453;-58
2022/12/18 04:15:22;;;;;;;2.55;0.65;;;21.60;54.70;;;;;;4025234;29;20037;-59
2022/12/18 04:17:50;;;;;;;2.78;0.80;;;21.60;54.50;;;;;;4039523;29;20040;-59
2022/12/18 04:20:13;;;;;;;3.08;1.20;;;21.60;53.80;;;;;;4040339;29;20041;-59
2022/12/18 04:22:35;;;;;;;1.80;0.88;;;21.60;54.10;;;;;;4034161;29;20044;-59
2022/12/18 04:24:58;;;;;;;3.80;1.00;;;21.60;54.10;;;;;;4028835;29;20044;-58
2022/12/18 04:27:21;;;;;;;3.67;1.20;;;21.70;53.80;;;;;;4016130;29;20090;-59
2022/12/18 04:29:43;;;;;;;2.50;1.08;;;21.70;54.00;;;;;;4026820;29;20567;-58
2022/12/18 04:32:06;;;;;;;3.38;1.13;;;21.70;53.60;;;;;;4022086;29;20969;-59
2022/12/18 04:34:28;;;;;;;2.90;0.85;;;21.70;53.50;;;;;;4026031;29;20057;-59
2022/12/18 04:36:51;;;;;;;2.88;1.08;;;21.70;53.60;;;;;;4024454;29;20025;-59
2022/12/18 04:39:14;;;;;;;3.78;1.10;;;21.80;53.90;;;;;;4025080;29;20250;-56
2022/12/18 04:41:36;;;;;;;2.92;0.90;;;21.80;54.50;;;;;;4020668;29;20084;-58
2022/12/18 04:43:59;;;;;;;7.55;1.05;;;21.80;53.70;;;;;;4017794;29;20069;-59
2022/12/18 04:46:21;;;;;;;4.40;1.08;;;21.80;53.60;;;;;;4022332;29;20084;-59
2022/12/18 04:48:47;;;;;;;3.65;1.10;;;21.80;53.80;;;;;;4025744;29;20127;-60
2022/12/18 04:51:09;;;;;;;4.47;1.38;;;21.80;53.40;;;;;;4022084;29;20078;-59
2022/12/18 04:53:32;;;;;;;4.20;1.50;;;21.80;53.10;;;;;;4024495;29;20497;-59
2022/12/18 04:56:12;;;;;;;2.05;0.70;;;21.80;52.80;;;;;;4026732;29;20049;-58
2022/12/18 04:58:35;;;;;;;2.88;1.00;;;21.80;52.80;;;;;;4029952;29;20040;-58
2022/12/18 05:00:58;;;;;;;3.63;1.20;;;21.80;52.60;;;;;;4024411;29;20441;-59
2022/12/18 05:03:20;;;;;;;3.42;1.10;;;21.80;52.20;;;;;;4026852;29;20667;-59
2022/12/18 05:05:43;;;;;;;1.95;0.75;;;21.90;52.30;;;;;;4027475;29;20052;-59
2022/12/18 05:08:05;;;;;;;2.53;0.85;;;21.90;52.30;;;;;;4027241;29;20044;-59
2022/12/18 05:10:28;;;;;;;0.85;0.60;;;22.00;52.50;;;;;;4024142;29;20544;-58
2022/12/18 05:13:00;;;;;;;3.22;1.08;;;22.00;52.10;;;;;;4027119;29;20411;-59
2022/12/18 05:15:22;;;;;;;1.95;0.75;;;22.10;52.00;;;;;;4024930;29;20045;-58
2022/12/18 05:17:45;;;;;;;2.20;1.00;;;22.10;52.10;;;;;;4031753;29;20524;-59
2022/12/18 05:20:08;;;;;;;4.00;1.17;;;22.10;52.10;;;;;;4031451;29;20055;-58
2022/12/18 05:22:30;;;;;;;1.58;0.75;;;22.20;52.30;;;;;;4030142;29;20052;-59
2022/12/18 05:24:53;;;;;;;2.15;0.70;;;22.20;52.10;;;;;;4030187;29;20083;-59
2022/12/18 05:27:15;;;;;;;2.67;0.73;;;22.20;51.80;;;;;;4027880;29;20076;-59
2022/12/18 05:29:38;;;;;;;1.08;0.60;;;22.20;51.00;;;;;;4027895;29;20424;-59
2022/12/18 05:32:01;;;;;;;4.00;0.95;;;22.30;50.90;;;;;;4030655;29;20040;-59
2022/12/18 05:34:23;;;;;;;2.45;0.80;;;22.30;51.70;;;;;;4026447;29;20123;-59
2022/12/18 05:36:48;;;;;;;1.27;0.65;;;22.30;50.90;;;;;;4025323;29;20807;-60
2022/12/18 05:39:11;;;;;;;1.60;0.82;;;22.40;50.60;;;;;;4023143;29;20076;-59
2022/12/18 05:41:34;;;;;;;3.08;1.05;;;22.50;50.50;;;;;;4022989;29;20073;-59
2022/12/18 05:43:56;;;;;;;4.50;0.98;;;22.50;50.50;;;;;;4026507;29;20040;-59
2022/12/18 05:46:19;;;;;;;2.00;1.05;;;22.50;50.40;;;;;;4024693;29;20055;-59
2022/12/18 05:48:43;;;;;;;3.25;0.90;;;22.60;50.20;;;;;;4018890;29;20079;-59
2022/12/18 05:51:08;;;;;;;2.88;1.00;;;22.60;50.30;;;;;;4022903;29;20044;-59
2022/12/18 05:53:30;;;;;;;3.15;1.00;;;22.70;50.30;;;;;;4026099;29;20052;-60
2022/12/18 05:55:53;;;;;;;2.78;1.00;;;22.70;50.20;;;;;;4021376;29;20041;-59
2022/12/18 05:58:16;;;;;;;2.78;1.05;;;22.90;50.30;;;;;;4027304;29;20417;-58
2022/12/18 06:00:43;;;;;;;2.25;0.80;;;22.80;50.10;;;;;;4029848;29;20520;-59
2022/12/18 06:03:05;;;;;;;2.90;0.90;;;22.90;50.20;;;;;;4036543;29;20417;-58
2022/12/18 06:05:28;;;;;;;2.33;1.10;;;22.90;50.20;;;;;;4037617;29;20041;-58
2022/12/18 06:07:51;;;;;;;4.22;1.10;;;23.00;50.30;;;;;;4027266;29;20516;-58
2022/12/18 06:10:14;;;;;;;3.45;1.02;;;23.00;50.20;;;;;;4035319;29;20397;-59
2022/12/18 06:12:36;;;;;;;3.40;1.20;;;23.00;50.10;;;;;;4031606;29;20076;-59
2022/12/18 06:14:59;;;;;;;4.70;1.30;;;23.00;50.20;;;;;;4028994;29;20608;-59
2022/12/18 06:17:22;;;;;;;6.93;1.67;;;23.10;50.10;;;;;;4031985;29;20052;-59
2022/12/18 06:19:50;;;;;;;4.18;1.65;;;23.10;50.10;;;;;;4033504;29;20420;-58
2022/12/18 06:22:13;;;;;;;3.95;1.48;;;23.10;50.10;;;;;;4020458;29;20518;-59
2022/12/18 06:27:02;;;;;;;5.20;1.83;;;23.10;50.00;;;;;;4482851;23;20070;-45
2022/12/18 06:29:24;;;;;;;4.22;2.03;;;23.20;49.80;;;;;;4067213;29;20039;-46
2022/12/18 06:31:47;;;;;;;3.38;1.23;;;23.20;49.40;;;;;;4061448;29;20039;-47
2022/12/18 06:34:09;;;;;;;3.35;1.48;;;23.20;49.50;;;;;;4059244;29;20036;-48
2022/12/18 06:36:32;;;;;;;2.95;1.20;;;23.20;49.40;;;;;;4055075;29;20071;-42
2022/12/18 06:38:55;;;;;;;3.05;1.30;;;23.20;49.10;;;;;;4051189;29;20047;-44
2022/12/18 06:41:20;;;;;;;2.13;1.10;;;23.20;49.10;;;;;;4043039;29;20476;-45
2022/12/18 06:43:43;;;;;;;4.30;1.50;;;23.20;49.30;;;;;;4054092;29;20511;-46
2022/12/18 06:46:06;;;;;;;3.83;1.20;;;23.20;49.20;;;;;;4052192;29;20695;-47
2022/12/18 06:48:29;;;;;;;3.87;1.20;;;23.20;49.20;;;;;;4052602;29;20657;-44
2022/12/18 06:50:52;;;;;;;3.15;1.17;;;23.20;49.20;;;;;;4411595;23;20084;-64
2022/12/18 06:53:15;;;;;;;2.42;1.10;;;23.20;49.20;;;;;;4047889;29;20122;-64
2022/12/18 06:55:38;;;;;;;2.45;1.00;;;23.20;49.10;;;;;;4052481;29;20066;-62
2022/12/18 06:58:00;;;;;;;4.35;1.10;;;23.20;49.20;;;;;;4066858;29;20491;-65
2022/12/18 07:00:23;;;;;;;1.52;0.82;;;23.20;49.40;;;;;;4067100;29;20119;-63
2022/12/18 07:02:45;;;;;;;3.42;0.80;;;23.20;49.40;;;;;;4075495;29;20114;-65
2022/12/18 07:05:08;;;;;;;3.78;1.05;;;23.10;49.40;;;;;;4063258;29;20675;-64
2022/12/18 07:07:31;;;;;;;3.20;1.10;;;23.10;49.70;;;;;;4065684;29;20443;-64
2022/12/18 07:09:53;;;;;;;2.65;0.90;;;23.00;49.80;;;;;;4053594;29;20036;-65
2022/12/18 07:12:16;;;;;;;4.07;1.00;;;23.00;49.90;;;;;;4061065;29;20522;-67
2022/12/18 07:14:38;;;;;;;3.33;1.27;;;23.00;49.90;;;;;;4062059;29;20436;-64
2022/12/18 07:17:02;;;;;;;4.63;1.33;;;23.00;49.90;;;;;;4057277;29;20443;-68
2022/12/18 07:19:24;;;;;;;3.43;0.70;;;23.00;49.90;;;;;;4060212;29;20656;-63
2022/12/18 07:21:47;;;;;;;4.35;1.15;;;22.90;50.10;;;;;;4050702;29;20305;-64
2022/12/18 07:24:10;;;;;;;4.65;1.20;;;22.90;50.20;;;;;;4058034;29;20094;-63
2022/12/18 07:26:32;;;;;;;3.15;0.95;;;22.90;50.30;;;;;;4062116;29;20508;-63
2022/12/18 07:28:58;;;;;;;2.85;1.20;;;22.90;50.50;;;;;;4057234;29;20058;-64
2022/12/18 07:31:22;;;;;;;3.60;1.13;;;22.90;50.30;;;;;;4049843;29;20052;-65
2022/12/18 07:33:45;;;;;;;3.53;1.30;;;22.80;50.40;;;;;;4055210;29;20048;-65
2022/12/18 07:36:09;;;;;;;2.70;1.00;;;22.80;51.10;;;;;;4038813;29;20081;-66
2022/12/18 07:38:33;;;;;;;1.42;0.68;;;22.80;50.70;;;;;;4059795;29;20463;-66
2022/12/18 07:41:01;;;;;;;2.10;0.90;;;22.80;50.80;;;;;;4060605;29;20044;-66
2022/12/18 07:43:24;;;;;;;2.30;0.95;;;22.70;51.00;;;;;;4053936;29;20043;-64
2022/12/18 07:45:49;;;;;;;2.65;1.17;;;22.70;51.20;;;;;;4051090;29;20043;-67
2022/12/18 07:48:12;;;;;;;2.20;0.82;;;22.70;51.40;;;;;;4050138;29;20584;-65
2022/12/18 07:50:34;;;;;;;4.10;1.08;;;22.70;51.60;;;;;;4052335;29;20508;-64
2022/12/18 07:52:57;;;;;;;3.22;0.93;;;22.60;51.70;;;;;;4052007;29;20047;-67
2022/12/18 07:55:20;;;;;;;4.32;1.27;;;22.60;51.80;;;;;;4050383;29;20138;-67
2022/12/18 07:57:42;;;;;;;3.33;1.20;;;22.60;51.90;;;;;;4052879;29;20082;-65
2022/12/18 08:00:05;;;;;;;3.25;1.48;;;22.60;52.10;;;;;;4058593;29;20075;-64
2022/12/18 08:02:31;;;;;;;4.40;1.80;;;22.50;52.10;;;;;;4052614;29;20492;-66
2022/12/18 08:04:54;;;;;;;5.43;1.20;;;22.50;52.10;;;;;;4057626;29;20092;-64
2022/12/18 08:07:16;;;;;;;4.30;1.63;;;22.50;52.10;;;;;;4059810;29;20046;-66
2022/12/18 08:09:39;;;;;;;2.75;0.90;;;22.50;52.20;;;;;;4050402;29;20130;-67
2022/12/18 08:12:02;;;;;;;4.70;1.35;;;22.50;52.20;;;;;;4059891;29;20036;-65
2022/12/18 08:14:24;;;;;;;5.85;1.15;;;22.50;52.30;;;;;;4056149;29;20666;-67
2022/12/18 08:16:47;;;;;;;6.15;1.25;;;22.50;52.30;;;;;;4061680;29;20794;-66
2022/12/18 08:19:10;;;;;;;3.15;1.38;;;22.50;52.20;;;;;;4053058;29;20035;-66
2022/12/18 08:21:33;;;;;;;5.68;1.30;;;22.40;52.10;;;;;;4053123;29;20508;-68
2022/12/18 08:23:58;;;;;;;2.95;1.10;;;22.40;52.00;;;;;;4056302;29;20524;-66
2022/12/18 08:26:21;;;;;;;2.58;0.80;;;22.40;52.10;;;;;;4056935;29;20046;-66
2022/12/18 08:28:44;;;;;;;1.88;0.95;;;22.40;52.10;;;;;;4055988;29;20036;-66
2022/12/18 08:31:08;;;;;;;4.13;1.17;;;22.40;52.10;;;;;;4066918;29;20044;-65
2022/12/18 08:33:30;;;;;;;4.43;1.10;;;22.40;52.30;;;;;;4069431;29;20050;-67
2022/12/18 08:35:53;;;;;;;3.97;0.95;;;22.30;52.30;;;;;;4062154;29;20035;-67
2022/12/18 08:38:16;;;;;;;3.15;1.00;;;22.30;52.40;;;;;;4055193;29;20688;-64
2022/12/18 08:40:38;;;;;;;5.30;0.95;;;22.20;52.40;;;;;;4054475;29;20459;-65
2022/12/18 08:45:42;;;;;;;3.95;1.13;;;22.20;52.70;;;;;;4060379;29;20054;-65
2022/12/18 08:48:04;;;;;;;2.30;0.82;;;22.20;52.80;;;;;;4048843;29;20600;-68
2022/12/18 08:50:27;;;;;;;1.98;0.88;;;22.20;52.90;;;;;;4057472;29;20110;-66
2022/12/18 08:52:49;;;;;;;2.90;0.95;;;22.20;53.20;;;;;;4055025;29;20039;-66
2022/12/18 08:55:12;;;;;;;3.90;0.77;;;22.10;53.40;;;;;;4057996;29;20023;-68
2022/12/18 08:57:34;;;;;;;3.15;1.10;;;22.10;53.40;;;;;;4064047;29;20050;-65
2022/12/18 08:59:57;;;;;;;1.65;0.70;;;22.10;53.50;;;;;;4061970;29;20375;-68
2022/12/18 09:02:19;;;;;;;2.05;0.82;;;22.10;53.50;;;;;;4046979;29;20531;-67
2022/12/18 09:04:42;;;;;;;2.10;0.82;;;22.10;53.70;;;;;;4058534;29;20103;-68
2022/12/18 09:07:05;;;;;;;2.17;0.93;;;22.00;53.70;;;;;;4051006;29;20033;-66
2022/12/18 09:09:27;;;;;;;3.05;1.10;;;22.00;53.80;;;;;;4061394;29;20040;-68
2022/12/18 09:11:50;;;;;;;1.15;0.75;;;22.10;53.80;;;;;;4054638;29;20043;-67
2022/12/18 09:14:12;;;;;;;3.08;1.00;;;22.00;53.80;;;;;;4059957;29;20056;-68
2022/12/18 09:16:35;;;;;;;2.90;1.15;;;22.00;53.70;;;;;;4061889;29;20048;-68
2022/12/18 09:19:01;;;;;;;2.10;0.73;;;22.00;53.80;;;;;;4061509;29;20044;-67
2022/12/18 09:21:24;;;;;;;3.13;0.98;;;22.00;53.90;;;;;;4058633;29;20039;-68
2022/12/18 09:23:53;;;;;;;5.25;1.20;;;22.00;54.00;;;;;;4062422;29;20056;-66
2022/12/18 09:26:16;;;;;;;4.18;1.08;;;22.00;54.00;;;;;;4058815;29;20107;-65
2022/12/18 09:28:39;;;;;;;4.43;0.90;;;22.00;54.10;;;;;;4064942;29;20068;-65
2022/12/18 09:31:07;;;;;;;4.50;0.98;;;22.00;54.20;;;;;;4062541;29;20415;-66
2022/12/18 09:33:29;;;;;;;2.92;0.70;;;22.00;54.20;;;;;;4058349;29;20090;-68
2022/12/18 09:35:52;;;;;;;2.00;0.88;;;21.90;54.20;;;;;;4063158;29;20119;-67
2022/12/18 09:38:17;;;;;;;2.80;1.17;;;21.90;54.40;;;;;;4063150;29;20028;-67
2022/12/18 09:40:53;;;;;;;3.40;0.98;;;21.90;54.40;;;;;;4061939;29;20047;-69
2022/12/18 09:43:44;;;;;;;1.52;1.00;;;21.90;54.40;;;;;;4058335;29;20040;-68
2022/12/18 09:46:10;;;;;;;2.65;0.80;;;21.90;54.40;;;;;;4056952;29;20408;-67
2022/12/18 09:48:38;;;;;;;2.53;0.80;;;21.90;54.50;;;;;;4061385;29;20040;-67
2022/12/18 09:51:11;;;;;;;3.25;0.90;;;21.90;54.60;;;;;;4061874;29;20052;-68
2022/12/18 09:53:37;;;;;;;3.70;0.90;;;21.90;54.60;;;;;;4059645;29;20048;-68
2022/12/18 09:56:04;;;;;;;3.97;1.13;;;21.90;54.60;;;;;;4054758;29;20044;-67
2022/12/18 09:58:45;;;;;;;2.25;0.80;;;21.90;54.60;;;;;;4059077;29;20151;-67
2022/12/18 10:01:22;;;;;;;2.33;1.02;;;21.90;54.60;;;;;;4055848;29;20047;-69
2022/12/18 10:03:45;;;;;;;2.03;0.88;;;21.90;54.60;;;;;;4043473;29;20116;-69
2022/12/18 10:06:26;;;;;;;3.05;0.93;;;21.90;54.80;;;;;;4055266;29;20527;-67
2022/12/18 10:09:19;;;;;;;3.67;0.85;;;21.90;54.80;;;;;;4064074;29;20039;-66
2022/12/18 10:11:57;;;;;;;4.00;0.90;;;21.80;54.80;;;;;;4053857;29;20052;-67
2022/12/18 10:14:34;;;;;;;6.28;1.20;;;21.90;54.80;;;;;;4059113;29;20340;-68
2022/12/18 10:17:08;;;;;;;3.70;1.27;;;21.80;54.80;;;;;;4060355;29;20047;-68
2022/12/18 10:19:48;;;;;;;2.03;1.13;;;21.80;54.90;;;;;;4056461;29;20040;-67
2022/12/18 10:22:41;;;;;;;2.17;1.00;;;21.80;54.90;;;;;;4064045;29;20488;-68
2022/12/18 10:25:13;;;;;;;4.43;1.60;;;21.80;55.00;;;;;;4061295;29;20084;-68
2022/12/18 10:27:36;;;;;;;3.72;1.10;;;21.80;54.90;;;;;;4064159;29;20050;-67
2022/12/18 10:30:00;;;;;;;3.45;0.80;;;21.80;55.10;;;;;;4065726;29;20572;-67
2022/12/18 10:32:29;;;;;;;2.78;1.00;;;21.80;55.00;;;;;;4059551;29;20039;-65
2022/12/18 10:34:54;;;;;;;3.08;1.23;;;21.80;55.00;;;;;;4061975;29;20043;-67
2022/12/18 10:37:22;;;;;;;3.45;1.38;;;21.80;55.20;;;;;;4058921;29;20473;-68
2022/12/18 10:39:47;;;;;;;2.88;1.17;;;21.80;55.20;;;;;;4060267;29;20039;-67
2022/12/18 10:42:19;;;;;;;4.15;1.13;;;21.80;55.20;;;;;;4070094;29;20038;-68
2022/12/18 10:44:42;;;;;;;2.58;1.00;;;21.80;55.30;;;;;;4066909;29;20385;-68
2022/12/18 10:47:11;;;;;;;2.97;1.35;;;21.70;55.20;;;;;;4062967;29;20146;-68
2022/12/18 10:49:35;;;;;;;2.50;1.08;;;21.70;55.30;;;;;;4063524;29;20075;-68
2022/12/18 10:52:07;;;;;;;;;;;21.70;55.40;;;;;;4065231;29;20613;-67
2022/12/18 10:54:31;;;;;;;3.53;1.05;;;21.70;55.40;;;;;;4060421;29;19965;-68
2022/12/18 10:57:31;;;;;;;4.80;1.10;;;21.70;55.40;;;;;;4061152;29;20042;-67
2022/12/18 10:59:55;;;;;;;2.67;0.90;;;21.70;55.40;;;;;;4058156;29;20462;-68
2022/12/18 11:02:38;;;;;;;2.83;1.30;;;21.70;55.30;;;;;;4060895;29;20066;-68
2022/12/18 11:05:01;;;;;;;2.65;1.23;;;21.70;55.30;;;;;;4060151;29;20053;-68
2022/12/18 11:07:24;;;;;;;3.28;1.20;;;21.70;55.40;;;;;;4058193;29;20050;-66
2022/12/18 11:10:02;;;;;;;3.60;1.30;;;21.70;55.50;;;;;;4057417;29;20035;-66
2022/12/18 11:12:25;;;;;;;4.15;1.20;;;21.60;56.10;;;;;;4070189;29;20118;-58
2022/12/18 11:14:50;;;;;;;3.05;1.13;;;21.60;55.40;;;;;;4067880;29;20060;-58
2022/12/18 11:17:31;;;;;;;3.53;1.10;;;21.60;55.40;;;;;;4067565;29;20421;-62
2022/12/18 11:20:02;;;;;;;5.80;1.38;;;21.60;55.30;;;;;;4067777;29;20028;-62
2022/12/18 11:22:36;;;;;;;3.33;0.85;;;21.60;55.50;;;;;;4065104;29;20721;-65
2022/12/18 11:25:01;;;;;;;4.10;1.30;;;21.60;56.00;;;;;;4062755;29;20112;-61
2022/12/18 11:27:25;;;;;;;3.38;1.27;;;21.60;56.20;;;;;;4066605;29;20502;-55
2022/12/18 11:29:51;;;;;;;3.63;1.20;;;21.60;56.40;;;;;;4061422;29;20396;-61
2022/12/18 11:32:32;;;;;;;6.10;1.30;;;21.60;56.30;;;;;;4058121;29;20072;-62
2022/12/18 11:35:22;;;;;;;4.32;1.13;;;21.60;56.60;;;;;;4058046;29;20043;-59
2022/12/18 11:37:48;;;;;;;8.77;1.95;;;21.60;56.80;;;;;;4058795;29;20099;-51
2022/12/18 11:40:22;;;;;;;4.40;1.08;;;21.60;57.00;;;;;;4059470;29;20047;-57
2022/12/18 11:43:15;;;;;;;4.38;1.38;;;21.60;56.90;;;;;;4059345;29;20043;-51
2022/12/18 11:45:51;;;;;;;3.33;1.20;;;21.60;56.80;;;;;;4057730;29;20456;-52
2022/12/18 11:48:24;;;;;;;3.03;1.08;;;21.70;56.80;;;;;;4055500;29;20036;-54
2022/12/18 11:50:52;;;;;;;6.13;1.05;;;21.60;56.70;;;;;;4060032;29;20058;-57
2022/12/18 11:53:15;;;;;;;3.15;0.95;;;21.70;56.80;;;;;;4064250;29;20318;-55
2022/12/18 11:55:50;;;;;;;2.05;0.93;;;21.70;56.80;;;;;;4062905;29;20040;-59
2022/12/18 11:58:34;;;;;;;2.88;0.90;;;21.70;56.90;;;;;;4062176;29;20066;-58
2022/12/18 12:01:37;;;;;;;3.57;1.10;;;21.70;56.90;;;;;;4059887;29;20447;-60
2022/12/18 12:04:42;;;;;;;5.35;1.50;;;21.70;56.90;;;;;;4061214;29;20354;-60
2022/12/18 12:07:10;;;;;;;6.90;1.65;;;21.70;57.10;;;;;;4060090;29;20036;-58
2022/12/18 12:09:48;;;;;;;5.40;1.25;;;21.70;56.90;;;;;;4063282;29;20044;-56
2022/12/18 12:12:17;;;;;;;3.08;1.05;;;21.70;56.80;;;;;;4062965;29;20047;-46
2022/12/18 12:14:55;;;;;;;5.95;1.15;;;21.70;56.80;;;;;;4066842;29;20412;-52
2022/12/18 12:17:33;;;;;;;10.18;1.70;;;21.70;57.30;;;;;;4056117;29;20048;-45
2022/12/18 12:20:13;;;;;;;4.78;1.38;;;21.70;57.40;;;;;;4067417;29;20576;-48
2022/12/18 12:22:35;;;;;;;6.30;1.20;;;21.70;57.40;;;;;;4065426;29;20051;-45
2022/12/18 12:25:05;;;;;;;3.63;1.40;;;21.80;57.30;;;;;;4063368;29;20051;-51
2022/12/18 12:27:40;;;;;;;2.08;1.05;;;21.80;57.20;;;;;;4062791;29;20060;-61
2022/12/18 12:30:02;;;;;;;6.63;1.30;;;21.80;57.20;;;;;;4045542;29;20052;-54
2022/12/18 12:32:44;;;;;;;6.10;1.63;;;21.80;57.30;;;;;;4064333;29;20043;-56
2022/12/18 12:35:14;;;;;;;7.80;1.67;;;21.90;57.40;;;;;;4067366;29;20055;-50
2022/12/18 12:37:45;;;;;;;4.25;1.13;;;21.90;57.30;;;;;;4068748;29;20043;-56
2022/12/18 12:40:19;;;;;;;10.05;1.92;;;21.90;57.00;;;;;;4053554;29;20540;-57
2022/12/18 12:45:58;;;;;;;3.08;1.10;;;21.90;57.20;;;;;;4059036;29;20590;-55
2022/12/18 12:48:21;;;;;;;5.03;1.42;;;21.80;57.20;;;;;;4056448;29;20042;-53
2022/12/18 12:50:44;;;;;;;5.20;1.38;;;21.80;57.20;;;;;;4056814;29;20044;-56
2022/12/18 12:53:15;;;;;;;8.57;1.48;;;21.80;57.30;;;;;;4061980;29;20690;-57
2022/12/18 12:55:38;;;;;;;4.90;1.20;;;21.80;57.30;;;;;;4059778;29;20031;-59